sensor_id;sensor_type;location;lat;lon;timestamp;P1;durP1;ratioP1;P2;durP2;ratioP2
23720;SDS011;42950;52.134;5.578;2022-10-22T00:00:48;7.05;;;5.55;;
23720;SDS011;42950;52.134;5.578;2022-10-22T00:03:13;7.40;;;5.30;;
23720;SDS011;42950;52.134;5.578;2022-10-22T00:05:39;6.05;;;5.45;;
23720;SDS011;42950;52.134;5.578;2022-10-22T00:08:04;6.55;;;5.30;;
23720;SDS011;42950;52.134;5.578;2022-10-22T00:10:30;10.57;;;5.38;;
23720;SDS011;42950;52.134;5.578;2022-10-22T00:12:55;9.80;;;5.07;;
23720;SDS011;42950;52.134;5.578;2022-10-22T00:15:21;9.05;;;5.68;;
23720;SDS011;42950;52.134;5.578;2022-10-22T00:17:47;9.52;;;5.70;;
23720;SDS011;42950;52.134;5.578;2022-10-22T00:20:13;9.50;;;5.32;;
23720;SDS011;42950;52.134;5.578;2022-10-22T00:22:39;8.93;;;5.60;;
23720;SDS011;42950;52.134;5.578;2022-10-22T00:25:05;7.60;;;5.45;;
23720;SDS011;42950;52.134;5.578;2022-10-22T00:27:30;8.38;;;5.30;;
23720;SDS011;42950;52.134;5.578;2022-10-22T00:29:56;8.90;;;5.65;;
23720;SDS011;42950;52.134;5.578;2022-10-22T00:32:22;10.20;;;5.55;;
23720;SDS011;42950;52.134;5.578;2022-10-22T00:34:47;7.68;;;5.90;;
23720;SDS011;42950;52.134;5.578;2022-10-22T00:37:13;12.35;;;6.55;;
23720;SDS011;42950;52.134;5.578;2022-10-22T00:39:38;13.40;;;7.40;;
23720;SDS011;42950;52.134;5.578;2022-10-22T00:42:04;15.70;;;8.23;;
23720;SDS011;42950;52.134;5.578;2022-10-22T00:47:35;8.27;;;5.22;;
23720;SDS011;42950;52.134;5.578;2022-10-22T00:50:02;7.20;;;5.60;;
23720;SDS011;42950;52.134;5.578;2022-10-22T00:52:33;6.97;;;5.78;;
23720;SDS011;42950;52.134;5.578;2022-10-22T00:54:59;9.07;;;5.72;;
23720;SDS011;42950;52.134;5.578;2022-10-22T00:57:25;11.00;;;6.22;;
23720;SDS011;42950;52.134;5.578;2022-10-22T00:59:51;6.93;;;5.43;;
23720;SDS011;42950;52.134;5.578;2022-10-22T01:02:19;8.50;;;6.15;;
23720;SDS011;42950;52.134;5.578;2022-10-22T01:04:45;8.27;;;5.90;;
23720;SDS011;42950;52.134;5.578;2022-10-22T01:07:15;7.78;;;5.88;;
23720;SDS011;42950;52.134;5.578;2022-10-22T01:23:21;10.00;;;5.95;;
23720;SDS011;42950;52.134;5.578;2022-10-22T01:32:04;11.35;;;6.43;;
23720;SDS011;42950;52.134;5.578;2022-10-22T01:34:34;7.85;;;6.10;;
23720;SDS011;42950;52.134;5.578;2022-10-22T01:37:02;10.80;;;5.75;;
23720;SDS011;42950;52.134;5.578;2022-10-22T01:39:28;9.82;;;5.82;;
23720;SDS011;42950;52.134;5.578;2022-10-22T01:41:56;10.48;;;5.40;;
23720;SDS011;42950;52.134;5.578;2022-10-22T01:44:26;10.25;;;5.80;;
23720;SDS011;42950;52.134;5.578;2022-10-22T01:46:57;8.52;;;5.40;;
23720;SDS011;42950;52.134;5.578;2022-10-22T01:52:55;8.88;;;5.95;;
23720;SDS011;42950;52.134;5.578;2022-10-22T02:00:44;9.65;;;5.55;;
23720;SDS011;42950;52.134;5.578;2022-10-22T02:03:13;7.82;;;5.50;;
23720;SDS011;42950;52.134;5.578;2022-10-22T02:05:47;7.68;;;5.38;;
23720;SDS011;42950;52.134;5.578;2022-10-22T02:08:18;8.85;;;5.28;;
23720;SDS011;42950;52.134;5.578;2022-10-22T02:10:47;8.15;;;5.68;;
23720;SDS011;42950;52.134;5.578;2022-10-22T02:13:15;11.80;;;6.20;;
23720;SDS011;42950;52.134;5.578;2022-10-22T02:15:45;8.93;;;5.88;;
23720;SDS011;42950;52.134;5.578;2022-10-22T02:18:12;6.90;;;5.90;;
23720;SDS011;42950;52.134;5.578;2022-10-22T02:20:40;9.93;;;5.50;;
23720;SDS011;42950;52.134;5.578;2022-10-22T02:23:06;8.10;;;5.63;;
23720;SDS011;42950;52.134;5.578;2022-10-22T02:25:34;12.02;;;6.28;;
23720;SDS011;42950;52.134;5.578;2022-10-22T02:30:53;10.82;;;6.18;;
23720;SDS011;42950;52.134;5.578;2022-10-22T02:35:55;16.95;;;7.00;;
23720;SDS011;42950;52.134;5.578;2022-10-22T02:38:23;10.43;;;6.43;;
23720;SDS011;42950;52.134;5.578;2022-10-22T02:40:50;10.73;;;6.22;;
23720;SDS011;42950;52.134;5.578;2022-10-22T02:43:16;10.93;;;6.68;;
23720;SDS011;42950;52.134;5.578;2022-10-22T02:45:42;9.43;;;6.70;;
23720;SDS011;42950;52.134;5.578;2022-10-22T02:48:08;12.00;;;6.32;;
23720;SDS011;42950;52.134;5.578;2022-10-22T02:50:34;9.90;;;6.88;;
23720;SDS011;42950;52.134;5.578;2022-10-22T02:53:00;11.23;;;7.25;;
23720;SDS011;42950;52.134;5.578;2022-10-22T02:55:25;12.73;;;6.93;;
23720;SDS011;42950;52.134;5.578;2022-10-22T02:57:51;11.38;;;6.78;;
23720;SDS011;42950;52.134;5.578;2022-10-22T03:00:17;14.05;;;7.28;;
23720;SDS011;42950;52.134;5.578;2022-10-22T03:02:43;12.45;;;7.07;;
23720;SDS011;42950;52.134;5.578;2022-10-22T03:05:08;12.95;;;7.50;;
23720;SDS011;42950;52.134;5.578;2022-10-22T03:07:34;10.07;;;7.13;;
23720;SDS011;42950;52.134;5.578;2022-10-22T03:10:00;8.65;;;7.05;;
23720;SDS011;42950;52.134;5.578;2022-10-22T03:12:25;10.35;;;7.20;;
23720;SDS011;42950;52.134;5.578;2022-10-22T03:14:51;11.63;;;7.72;;
23720;SDS011;42950;52.134;5.578;2022-10-22T03:17:16;12.38;;;7.93;;
23720;SDS011;42950;52.134;5.578;2022-10-22T03:19:42;11.38;;;7.53;;
23720;SDS011;42950;52.134;5.578;2022-10-22T03:22:21;10.55;;;7.13;;
23720;SDS011;42950;52.134;5.578;2022-10-22T03:24:51;12.45;;;7.70;;
23720;SDS011;42950;52.134;5.578;2022-10-22T03:27:19;11.60;;;7.35;;
23720;SDS011;42950;52.134;5.578;2022-10-22T03:29:47;11.73;;;7.47;;
23720;SDS011;42950;52.134;5.578;2022-10-22T03:32:15;15.18;;;7.63;;
23720;SDS011;42950;52.134;5.578;2022-10-22T03:34:41;12.35;;;7.50;;
23720;SDS011;42950;52.134;5.578;2022-10-22T03:37:06;10.27;;;7.63;;
23720;SDS011;42950;52.134;5.578;2022-10-22T03:39:32;10.15;;;7.30;;
23720;SDS011;42950;52.134;5.578;2022-10-22T03:41:59;12.00;;;7.45;;
23720;SDS011;42950;52.134;5.578;2022-10-22T03:44:26;8.65;;;7.20;;
23720;SDS011;42950;52.134;5.578;2022-10-22T03:46:52;10.63;;;7.35;;
23720;SDS011;42950;52.134;5.578;2022-10-22T03:49:18;12.32;;;7.35;;
23720;SDS011;42950;52.134;5.578;2022-10-22T03:51:43;11.10;;;7.55;;
23720;SDS011;42950;52.134;5.578;2022-10-22T03:54:09;12.82;;;7.55;;
23720;SDS011;42950;52.134;5.578;2022-10-22T03:56:34;14.45;;;7.50;;
23720;SDS011;42950;52.134;5.578;2022-10-22T03:59:00;12.10;;;7.60;;
23720;SDS011;42950;52.134;5.578;2022-10-22T04:01:26;12.82;;;7.63;;
23720;SDS011;42950;52.134;5.578;2022-10-22T04:03:53;13.98;;;8.73;;
23720;SDS011;42950;52.134;5.578;2022-10-22T04:06:20;15.13;;;7.82;;
23720;SDS011;42950;52.134;5.578;2022-10-22T04:08:46;10.88;;;7.55;;
23720;SDS011;42950;52.134;5.578;2022-10-22T04:11:12;11.95;;;7.40;;
23720;SDS011;42950;52.134;5.578;2022-10-22T04:13:39;12.55;;;7.72;;
23720;SDS011;42950;52.134;5.578;2022-10-22T04:16:06;9.27;;;7.25;;
23720;SDS011;42950;52.134;5.578;2022-10-22T04:18:31;10.15;;;7.90;;
23720;SDS011;42950;52.134;5.578;2022-10-22T04:20:57;14.55;;;7.60;;
23720;SDS011;42950;52.134;5.578;2022-10-22T04:23:22;15.05;;;8.15;;
23720;SDS011;42950;52.134;5.578;2022-10-22T04:25:48;13.73;;;7.82;;
23720;SDS011;42950;52.134;5.578;2022-10-22T04:28:13;12.60;;;7.55;;
23720;SDS011;42950;52.134;5.578;2022-10-22T04:30:39;11.80;;;8.05;;
23720;SDS011;42950;52.134;5.578;2022-10-22T04:33:05;12.15;;;7.30;;
23720;SDS011;42950;52.134;5.578;2022-10-22T04:35:30;13.88;;;7.60;;
23720;SDS011;42950;52.134;5.578;2022-10-22T04:37:56;12.98;;;7.40;;
23720;SDS011;42950;52.134;5.578;2022-10-22T04:40:21;14.90;;;7.25;;
23720;SDS011;42950;52.134;5.578;2022-10-22T04:42:47;13.18;;;7.68;;
23720;SDS011;42950;52.134;5.578;2022-10-22T04:45:12;16.58;;;7.75;;
23720;SDS011;42950;52.134;5.578;2022-10-22T04:47:39;10.40;;;7.47;;
23720;SDS011;42950;52.134;5.578;2022-10-22T04:50:05;13.30;;;7.40;;
23720;SDS011;42950;52.134;5.578;2022-10-22T04:52:31;12.52;;;7.25;;
23720;SDS011;42950;52.134;5.578;2022-10-22T04:54:56;13.05;;;7.72;;
23720;SDS011;42950;52.134;5.578;2022-10-22T04:57:22;11.93;;;6.85;;
23720;SDS011;42950;52.134;5.578;2022-10-22T04:59:47;13.85;;;6.85;;
23720;SDS011;42950;52.134;5.578;2022-10-22T05:02:13;10.90;;;6.72;;
23720;SDS011;42950;52.134;5.578;2022-10-22T05:04:39;15.65;;;7.40;;
23720;SDS011;42950;52.134;5.578;2022-10-22T05:07:04;12.68;;;7.10;;
23720;SDS011;42950;52.134;5.578;2022-10-22T05:09:30;11.10;;;6.72;;
23720;SDS011;42950;52.134;5.578;2022-10-22T05:11:55;9.80;;;6.75;;
23720;SDS011;42950;52.134;5.578;2022-10-22T05:14:22;17.33;;;7.22;;
23720;SDS011;42950;52.134;5.578;2022-10-22T05:16:49;10.60;;;7.13;;
23720;SDS011;42950;52.134;5.578;2022-10-22T05:19:17;13.50;;;7.68;;
23720;SDS011;42950;52.134;5.578;2022-10-22T05:21:44;14.90;;;7.15;;
23720;SDS011;42950;52.134;5.578;2022-10-22T05:24:10;11.20;;;6.43;;
23720;SDS011;42950;52.134;5.578;2022-10-22T05:26:38;13.98;;;7.03;;
23720;SDS011;42950;52.134;5.578;2022-10-22T05:29:04;14.55;;;6.60;;
23720;SDS011;42950;52.134;5.578;2022-10-22T05:31:29;15.55;;;7.22;;
23720;SDS011;42950;52.134;5.578;2022-10-22T05:33:55;16.63;;;6.70;;
23720;SDS011;42950;52.134;5.578;2022-10-22T05:36:21;12.18;;;6.63;;
23720;SDS011;42950;52.134;5.578;2022-10-22T05:38:47;16.58;;;7.20;;
23720;SDS011;42950;52.134;5.578;2022-10-22T05:41:15;12.43;;;6.05;;
23720;SDS011;42950;52.134;5.578;2022-10-22T05:43:42;12.05;;;6.22;;
23720;SDS011;42950;52.134;5.578;2022-10-22T05:46:09;13.80;;;6.68;;
23720;SDS011;42950;52.134;5.578;2022-10-22T05:48:36;10.55;;;6.38;;
23720;SDS011;42950;52.134;5.578;2022-10-22T05:51:03;15.40;;;6.55;;
23720;SDS011;42950;52.134;5.578;2022-10-22T05:53:31;16.48;;;6.40;;
23720;SDS011;42950;52.134;5.578;2022-10-22T05:56:05;14.10;;;6.18;;
23720;SDS011;42950;52.134;5.578;2022-10-22T05:58:35;11.02;;;6.03;;
23720;SDS011;42950;52.134;5.578;2022-10-22T06:01:05;17.02;;;6.10;;
23720;SDS011;42950;52.134;5.578;2022-10-22T06:03:32;15.98;;;6.18;;
23720;SDS011;42950;52.134;5.578;2022-10-22T06:06:01;16.17;;;6.20;;
23720;SDS011;42950;52.134;5.578;2022-10-22T06:08:31;13.07;;;6.22;;
23720;SDS011;42950;52.134;5.578;2022-10-22T06:10:57;12.27;;;5.93;;
23720;SDS011;42950;52.134;5.578;2022-10-22T06:13:24;16.50;;;6.10;;
23720;SDS011;42950;52.134;5.578;2022-10-22T06:15:50;13.15;;;6.20;;
23720;SDS011;42950;52.134;5.578;2022-10-22T06:18:17;11.50;;;5.60;;
23720;SDS011;42950;52.134;5.578;2022-10-22T06:20:43;13.20;;;5.88;;
23720;SDS011;42950;52.134;5.578;2022-10-22T06:23:09;15.38;;;6.07;;
23720;SDS011;42950;52.134;5.578;2022-10-22T06:25:35;15.98;;;5.65;;
23720;SDS011;42950;52.134;5.578;2022-10-22T06:28:00;13.25;;;5.65;;
23720;SDS011;42950;52.134;5.578;2022-10-22T06:30:26;14.07;;;5.90;;
23720;SDS011;42950;52.134;5.578;2022-10-22T06:32:51;15.18;;;6.35;;
23720;SDS011;42950;52.134;5.578;2022-10-22T06:35:17;12.75;;;5.50;;
23720;SDS011;42950;52.134;5.578;2022-10-22T06:37:42;14.70;;;5.70;;
23720;SDS011;42950;52.134;5.578;2022-10-22T06:40:08;12.80;;;5.95;;
23720;SDS011;42950;52.134;5.578;2022-10-22T06:42:35;13.55;;;5.22;;
23720;SDS011;42950;52.134;5.578;2022-10-22T06:45:00;12.68;;;6.53;;
23720;SDS011;42950;52.134;5.578;2022-10-22T06:47:26;19.55;;;6.53;;
23720;SDS011;42950;52.134;5.578;2022-10-22T06:49:51;11.60;;;5.40;;
23720;SDS011;42950;52.134;5.578;2022-10-22T06:52:17;11.00;;;5.45;;
23720;SDS011;42950;52.134;5.578;2022-10-22T06:54:42;11.82;;;6.20;;
23720;SDS011;42950;52.134;5.578;2022-10-22T06:57:08;12.25;;;5.40;;
23720;SDS011;42950;52.134;5.578;2022-10-22T06:59:33;9.98;;;5.70;;
23720;SDS011;42950;52.134;5.578;2022-10-22T07:01:59;10.55;;;5.72;;
23720;SDS011;42950;52.134;5.578;2022-10-22T07:04:24;13.80;;;6.22;;
23720;SDS011;42950;52.134;5.578;2022-10-22T07:06:50;15.18;;;6.30;;
23720;SDS011;42950;52.134;5.578;2022-10-22T07:09:19;11.07;;;6.00;;
23720;SDS011;42950;52.134;5.578;2022-10-22T07:11:44;12.43;;;5.60;;
23720;SDS011;42950;52.134;5.578;2022-10-22T07:14:10;9.60;;;5.22;;
23720;SDS011;42950;52.134;5.578;2022-10-22T07:16:36;13.20;;;5.70;;
23720;SDS011;42950;52.134;5.578;2022-10-22T07:19:02;15.77;;;5.43;;
23720;SDS011;42950;52.134;5.578;2022-10-22T07:21:29;17.90;;;5.38;;
23720;SDS011;42950;52.134;5.578;2022-10-22T07:23:56;14.32;;;5.55;;
23720;SDS011;42950;52.134;5.578;2022-10-22T07:26:22;12.45;;;5.25;;
23720;SDS011;42950;52.134;5.578;2022-10-22T07:28:52;13.32;;;5.32;;
23720;SDS011;42950;52.134;5.578;2022-10-22T07:31:18;11.75;;;5.03;;
23720;SDS011;42950;52.134;5.578;2022-10-22T07:33:44;16.05;;;5.00;;
23720;SDS011;42950;52.134;5.578;2022-10-22T07:36:11;15.07;;;5.20;;
23720;SDS011;42950;52.134;5.578;2022-10-22T07:38:42;15.50;;;5.07;;
23720;SDS011;42950;52.134;5.578;2022-10-22T07:41:09;8.75;;;4.57;;
23720;SDS011;42950;52.134;5.578;2022-10-22T07:43:35;11.02;;;4.28;;
23720;SDS011;42950;52.134;5.578;2022-10-22T07:46:00;11.48;;;4.32;;
23720;SDS011;42950;52.134;5.578;2022-10-22T07:48:26;13.20;;;4.82;;
23720;SDS011;42950;52.134;5.578;2022-10-22T07:50:52;14.40;;;4.57;;
23720;SDS011;42950;52.134;5.578;2022-10-22T07:53:18;12.48;;;4.57;;
23720;SDS011;42950;52.134;5.578;2022-10-22T07:55:48;10.50;;;4.22;;
23720;SDS011;42950;52.134;5.578;2022-10-22T07:58:16;15.05;;;4.28;;
23720;SDS011;42950;52.134;5.578;2022-10-22T08:00:42;11.35;;;4.00;;
23720;SDS011;42950;52.134;5.578;2022-10-22T08:03:12;14.18;;;4.03;;
23720;SDS011;42950;52.134;5.578;2022-10-22T08:05:39;16.05;;;3.92;;
23720;SDS011;42950;52.134;5.578;2022-10-22T08:08:07;13.80;;;4.00;;
23720;SDS011;42950;52.134;5.578;2022-10-22T08:10:33;11.35;;;3.55;;
23720;SDS011;42950;52.134;5.578;2022-10-22T08:12:59;12.13;;;4.13;;
23720;SDS011;42950;52.134;5.578;2022-10-22T08:15:25;15.68;;;3.88;;
23720;SDS011;42950;52.134;5.578;2022-10-22T08:17:51;11.23;;;3.90;;
23720;SDS011;42950;52.134;5.578;2022-10-22T08:20:17;12.63;;;3.70;;
23720;SDS011;42950;52.134;5.578;2022-10-22T08:22:43;12.63;;;4.00;;
23720;SDS011;42950;52.134;5.578;2022-10-22T08:25:09;13.55;;;3.95;;
23720;SDS011;42950;52.134;5.578;2022-10-22T08:27:35;12.38;;;3.70;;
23720;SDS011;42950;52.134;5.578;2022-10-22T08:30:02;12.90;;;3.55;;
23720;SDS011;42950;52.134;5.578;2022-10-22T08:32:29;13.27;;;3.47;;
23720;SDS011;42950;52.134;5.578;2022-10-22T08:34:55;13.00;;;3.60;;
23720;SDS011;42950;52.134;5.578;2022-10-22T08:37:20;15.68;;;3.67;;
23720;SDS011;42950;52.134;5.578;2022-10-22T08:39:46;12.32;;;4.07;;
23720;SDS011;42950;52.134;5.578;2022-10-22T08:45:28;10.68;;;3.30;;
23720;SDS011;42950;52.134;5.578;2022-10-22T08:50:40;14.07;;;3.53;;
23720;SDS011;42950;52.134;5.578;2022-10-22T08:53:14;9.07;;;2.83;;
23720;SDS011;42950;52.134;5.578;2022-10-22T08:55:43;9.10;;;3.22;;
23720;SDS011;42950;52.134;5.578;2022-10-22T09:06:27;11.88;;;3.72;;
23720;SDS011;42950;52.134;5.578;2022-10-22T09:08:56;13.38;;;3.20;;
23720;SDS011;42950;52.134;5.578;2022-10-22T09:11:31;16.17;;;3.50;;
23720;SDS011;42950;52.134;5.578;2022-10-22T09:14:02;11.55;;;2.95;;
23720;SDS011;42950;52.134;5.578;2022-10-22T09:19:11;9.52;;;3.58;;
23720;SDS011;42950;52.134;5.578;2022-10-22T09:22:01;11.60;;;2.72;;
23720;SDS011;42950;52.134;5.578;2022-10-22T09:24:41;11.73;;;2.90;;
23720;SDS011;42950;52.134;5.578;2022-10-22T09:27:10;9.05;;;3.08;;
23720;SDS011;42950;52.134;5.578;2022-10-22T09:29:42;11.05;;;2.60;;
23720;SDS011;42950;52.134;5.578;2022-10-22T09:32:08;8.15;;;2.55;;
23720;SDS011;42950;52.134;5.578;2022-10-22T09:34:34;10.40;;;2.80;;
23720;SDS011;42950;52.134;5.578;2022-10-22T09:37:01;9.40;;;2.60;;
23720;SDS011;42950;52.134;5.578;2022-10-22T09:39:33;12.20;;;2.95;;
23720;SDS011;42950;52.134;5.578;2022-10-22T09:42:02;12.55;;;3.13;;
23720;SDS011;42950;52.134;5.578;2022-10-22T09:44:28;10.18;;;3.35;;
23720;SDS011;42950;52.134;5.578;2022-10-22T09:46:58;10.80;;;2.78;;
23720;SDS011;42950;52.134;5.578;2022-10-22T09:49:23;9.55;;;2.65;;
23720;SDS011;42950;52.134;5.578;2022-10-22T09:51:57;10.68;;;2.85;;
23720;SDS011;42950;52.134;5.578;2022-10-22T09:54:25;10.43;;;2.80;;
23720;SDS011;42950;52.134;5.578;2022-10-22T09:57:04;9.75;;;2.50;;
23720;SDS011;42950;52.134;5.578;2022-10-22T09:59:37;9.38;;;2.40;;
23720;SDS011;42950;52.134;5.578;2022-10-22T10:02:10;8.95;;;2.55;;
23720;SDS011;42950;52.134;5.578;2022-10-22T10:04:39;12.35;;;2.85;;
23720;SDS011;42950;52.134;5.578;2022-10-22T10:07:17;11.80;;;2.75;;
23720;SDS011;42950;52.134;5.578;2022-10-22T10:09:46;11.43;;;2.60;;
23720;SDS011;42950;52.134;5.578;2022-10-22T10:12:21;13.48;;;3.10;;
23720;SDS011;42950;52.134;5.578;2022-10-22T10:20:54;11.15;;;2.63;;
23720;SDS011;42950;52.134;5.578;2022-10-22T10:23:42;12.52;;;3.10;;
23720;SDS011;42950;52.134;5.578;2022-10-22T10:37:52;11.75;;;2.50;;
23720;SDS011;42950;52.134;5.578;2022-10-22T10:40:56;13.98;;;2.80;;
23720;SDS011;42950;52.134;5.578;2022-10-22T10:49:18;13.00;;;2.63;;
23720;SDS011;42950;52.134;5.578;2022-10-22T10:57:20;9.50;;;2.60;;
23720;SDS011;42950;52.134;5.578;2022-10-22T11:08:13;12.77;;;2.22;;
23720;SDS011;42950;52.134;5.578;2022-10-22T11:13:38;11.80;;;2.30;;
23720;SDS011;42950;52.134;5.578;2022-10-22T11:16:19;10.48;;;1.90;;
23720;SDS011;42950;52.134;5.578;2022-10-22T11:19:35;8.32;;;1.80;;
23720;SDS011;42950;52.134;5.578;2022-10-22T11:22:05;12.25;;;2.28;;
23720;SDS011;42950;52.134;5.578;2022-10-22T11:24:42;15.13;;;2.08;;
23720;SDS011;42950;52.134;5.578;2022-10-22T11:29:58;8.55;;;2.28;;
23720;SDS011;42950;52.134;5.578;2022-10-22T11:32:27;8.25;;;1.80;;
23720;SDS011;42950;52.134;5.578;2022-10-22T11:34:55;10.57;;;2.13;;
23720;SDS011;42950;52.134;5.578;2022-10-22T11:37:25;9.50;;;1.98;;
23720;SDS011;42950;52.134;5.578;2022-10-22T11:40:13;8.48;;;2.05;;
23720;SDS011;42950;52.134;5.578;2022-10-22T11:43:07;9.98;;;2.08;;
23720;SDS011;42950;52.134;5.578;2022-10-22T11:50:44;12.25;;;2.25;;
23720;SDS011;42950;52.134;5.578;2022-10-22T11:53:31;10.88;;;2.08;;
23720;SDS011;42950;52.134;5.578;2022-10-22T11:55:57;9.60;;;2.03;;
23720;SDS011;42950;52.134;5.578;2022-10-22T11:58:45;11.35;;;1.90;;
23720;SDS011;42950;52.134;5.578;2022-10-22T12:03:38;12.23;;;2.28;;
23720;SDS011;42950;52.134;5.578;2022-10-22T12:08:43;20.00;;;2.55;;
23720;SDS011;42950;52.134;5.578;2022-10-22T12:13:55;14.68;;;2.35;;
23720;SDS011;42950;52.134;5.578;2022-10-22T12:16:37;10.30;;;1.92;;
23720;SDS011;42950;52.134;5.578;2022-10-22T12:19:23;11.38;;;2.45;;
23720;SDS011;42950;52.134;5.578;2022-10-22T12:22:10;14.95;;;2.53;;
23720;SDS011;42950;52.134;5.578;2022-10-22T12:24:52;14.38;;;2.78;;
23720;SDS011;42950;52.134;5.578;2022-10-22T12:27:26;9.50;;;2.22;;
23720;SDS011;42950;52.134;5.578;2022-10-22T12:29:58;16.30;;;2.55;;
23720;SDS011;42950;52.134;5.578;2022-10-22T12:32:32;11.77;;;2.25;;
23720;SDS011;42950;52.134;5.578;2022-10-22T12:35:03;8.30;;;1.92;;
23720;SDS011;42950;52.134;5.578;2022-10-22T12:37:31;13.73;;;2.17;;
23720;SDS011;42950;52.134;5.578;2022-10-22T12:39:59;13.05;;;2.28;;
23720;SDS011;42950;52.134;5.578;2022-10-22T12:42:25;12.05;;;2.45;;
23720;SDS011;42950;52.134;5.578;2022-10-22T12:44:54;12.40;;;2.30;;
23720;SDS011;42950;52.134;5.578;2022-10-22T12:47:20;14.40;;;2.53;;
23720;SDS011;42950;52.134;5.578;2022-10-22T12:49:47;12.60;;;2.25;;
23720;SDS011;42950;52.134;5.578;2022-10-22T12:52:14;17.25;;;2.33;;
23720;SDS011;42950;52.134;5.578;2022-10-22T12:54:44;13.38;;;2.20;;
23720;SDS011;42950;52.134;5.578;2022-10-22T12:57:12;15.50;;;2.40;;
23720;SDS011;42950;52.134;5.578;2022-10-22T12:59:41;14.93;;;2.65;;
23720;SDS011;42950;52.134;5.578;2022-10-22T13:02:20;9.65;;;2.38;;
23720;SDS011;42950;52.134;5.578;2022-10-22T13:07:40;10.82;;;2.20;;
23720;SDS011;42950;52.134;5.578;2022-10-22T13:10:19;13.60;;;2.35;;
23720;SDS011;42950;52.134;5.578;2022-10-22T13:12:56;10.85;;;2.53;;
23720;SDS011;42950;52.134;5.578;2022-10-22T13:18:04;13.88;;;2.30;;
23720;SDS011;42950;52.134;5.578;2022-10-22T13:20:30;13.68;;;2.25;;
23720;SDS011;42950;52.134;5.578;2022-10-22T13:23:00;13.00;;;2.38;;
23720;SDS011;42950;52.134;5.578;2022-10-22T13:25:34;16.08;;;2.50;;
23720;SDS011;42950;52.134;5.578;2022-10-22T13:30:35;15.57;;;3.05;;
23720;SDS011;42950;52.134;5.578;2022-10-22T13:33:05;13.00;;;2.63;;
23720;SDS011;42950;52.134;5.578;2022-10-22T13:35:50;10.35;;;2.15;;
23720;SDS011;42950;52.134;5.578;2022-10-22T13:38:18;12.10;;;3.30;;
23720;SDS011;42950;52.134;5.578;2022-10-22T13:40:45;14.77;;;2.53;;
23720;SDS011;42950;52.134;5.578;2022-10-22T13:43:11;13.63;;;2.55;;
23720;SDS011;42950;52.134;5.578;2022-10-22T13:48:59;14.65;;;2.95;;
23720;SDS011;42950;52.134;5.578;2022-10-22T13:51:31;15.90;;;2.83;;
23720;SDS011;42950;52.134;5.578;2022-10-22T13:54:01;19.17;;;2.70;;
23720;SDS011;42950;52.134;5.578;2022-10-22T13:56:28;11.43;;;2.88;;
23720;SDS011;42950;52.134;5.578;2022-10-22T13:58:53;10.90;;;2.53;;
23720;SDS011;42950;52.134;5.578;2022-10-22T14:03:50;12.90;;;2.70;;
23720;SDS011;42950;52.134;5.578;2022-10-22T14:06:18;14.68;;;2.50;;
23720;SDS011;42950;52.134;5.578;2022-10-22T14:08:47;14.68;;;2.72;;
23720;SDS011;42950;52.134;5.578;2022-10-22T14:11:15;10.52;;;2.80;;
23720;SDS011;42950;52.134;5.578;2022-10-22T14:13:41;15.13;;;2.80;;
23720;SDS011;42950;52.134;5.578;2022-10-22T14:16:10;16.40;;;2.95;;
23720;SDS011;42950;52.134;5.578;2022-10-22T14:18:41;13.60;;;2.92;;
23720;SDS011;42950;52.134;5.578;2022-10-22T14:21:07;13.45;;;2.80;;
23720;SDS011;42950;52.134;5.578;2022-10-22T14:23:33;11.57;;;2.45;;
23720;SDS011;42950;52.134;5.578;2022-10-22T14:26:00;15.07;;;3.17;;
23720;SDS011;42950;52.134;5.578;2022-10-22T14:28:27;13.45;;;3.03;;
23720;SDS011;42950;52.134;5.578;2022-10-22T14:30:53;15.32;;;3.03;;
23720;SDS011;42950;52.134;5.578;2022-10-22T14:33:29;14.05;;;3.00;;
23720;SDS011;42950;52.134;5.578;2022-10-22T14:35:56;15.43;;;3.42;;
23720;SDS011;42950;52.134;5.578;2022-10-22T14:38:26;10.10;;;2.42;;
23720;SDS011;42950;52.134;5.578;2022-10-22T14:40:52;14.18;;;3.05;;
23720;SDS011;42950;52.134;5.578;2022-10-22T14:45:45;16.35;;;2.95;;
23720;SDS011;42950;52.134;5.578;2022-10-22T14:48:10;15.07;;;3.30;;
23720;SDS011;42950;52.134;5.578;2022-10-22T14:50:36;12.55;;;3.30;;
23720;SDS011;42950;52.134;5.578;2022-10-22T14:53:02;14.15;;;3.58;;
23720;SDS011;42950;52.134;5.578;2022-10-22T14:55:27;17.17;;;3.17;;
23720;SDS011;42950;52.134;5.578;2022-10-22T14:57:53;18.38;;;3.53;;
23720;SDS011;42950;52.134;5.578;2022-10-22T15:00:19;14.40;;;2.90;;
23720;SDS011;42950;52.134;5.578;2022-10-22T15:02:45;13.50;;;2.83;;
23720;SDS011;42950;52.134;5.578;2022-10-22T15:05:12;14.00;;;3.70;;
23720;SDS011;42950;52.134;5.578;2022-10-22T15:07:38;19.17;;;3.75;;
23720;SDS011;42950;52.134;5.578;2022-10-22T15:10:04;19.58;;;3.90;;
23720;SDS011;42950;52.134;5.578;2022-10-22T15:12:30;12.35;;;2.95;;
23720;SDS011;42950;52.134;5.578;2022-10-22T15:14:56;17.25;;;3.50;;
23720;SDS011;42950;52.134;5.578;2022-10-22T15:17:22;13.23;;;2.95;;
23720;SDS011;42950;52.134;5.578;2022-10-22T15:19:48;20.25;;;3.10;;
23720;SDS011;42950;52.134;5.578;2022-10-22T15:22:13;13.88;;;2.95;;
23720;SDS011;42950;52.134;5.578;2022-10-22T15:24:40;16.67;;;3.40;;
23720;SDS011;42950;52.134;5.578;2022-10-22T15:27:08;20.13;;;3.55;;
23720;SDS011;42950;52.134;5.578;2022-10-22T15:29:37;13.93;;;3.13;;
23720;SDS011;42950;52.134;5.578;2022-10-22T15:32:03;13.95;;;2.90;;
23720;SDS011;42950;52.134;5.578;2022-10-22T15:34:31;8.95;;;2.35;;
23720;SDS011;42950;52.134;5.578;2022-10-22T15:36:58;17.38;;;3.50;;
23720;SDS011;42950;52.134;5.578;2022-10-22T15:39:26;14.80;;;3.30;;
23720;SDS011;42950;52.134;5.578;2022-10-22T15:41:52;18.05;;;2.95;;
23720;SDS011;42950;52.134;5.578;2022-10-22T15:44:19;17.80;;;3.30;;
23720;SDS011;42950;52.134;5.578;2022-10-22T15:46:46;18.75;;;3.17;;
23720;SDS011;42950;52.134;5.578;2022-10-22T15:49:12;17.27;;;3.33;;
23720;SDS011;42950;52.134;5.578;2022-10-22T15:51:38;15.75;;;3.40;;
23720;SDS011;42950;52.134;5.578;2022-10-22T15:54:04;15.25;;;3.50;;
23720;SDS011;42950;52.134;5.578;2022-10-22T15:56:30;13.55;;;3.58;;
23720;SDS011;42950;52.134;5.578;2022-10-22T15:58:57;16.92;;;3.58;;
23720;SDS011;42950;52.134;5.578;2022-10-22T16:01:25;16.52;;;3.42;;
23720;SDS011;42950;52.134;5.578;2022-10-22T16:03:51;15.60;;;3.88;;
23720;SDS011;42950;52.134;5.578;2022-10-22T16:06:24;14.40;;;3.47;;
23720;SDS011;42950;52.134;5.578;2022-10-22T16:08:51;16.42;;;3.88;;
23720;SDS011;42950;52.134;5.578;2022-10-22T16:11:17;15.68;;;3.72;;
23720;SDS011;42950;52.134;5.578;2022-10-22T16:13:43;12.75;;;3.42;;
23720;SDS011;42950;52.134;5.578;2022-10-22T16:16:09;10.23;;;3.45;;
23720;SDS011;42950;52.134;5.578;2022-10-22T16:18:34;17.75;;;4.93;;
23720;SDS011;42950;52.134;5.578;2022-10-22T16:21:00;14.68;;;3.72;;
23720;SDS011;42950;52.134;5.578;2022-10-22T16:23:25;14.50;;;4.38;;
23720;SDS011;42950;52.134;5.578;2022-10-22T16:25:51;13.45;;;4.10;;
23720;SDS011;42950;52.134;5.578;2022-10-22T16:28:16;12.98;;;4.35;;
23720;SDS011;42950;52.134;5.578;2022-10-22T16:30:42;10.75;;;4.57;;
23720;SDS011;42950;52.134;5.578;2022-10-22T16:33:09;14.63;;;5.28;;
23720;SDS011;42950;52.134;5.578;2022-10-22T16:35:41;12.57;;;5.30;;
23720;SDS011;42950;52.134;5.578;2022-10-22T16:38:08;15.10;;;5.13;;
23720;SDS011;42950;52.134;5.578;2022-10-22T16:40:34;13.02;;;4.80;;
23720;SDS011;42950;52.134;5.578;2022-10-22T16:43:00;19.25;;;4.30;;
23720;SDS011;42950;52.134;5.578;2022-10-22T16:45:26;12.63;;;4.15;;
23720;SDS011;42950;52.134;5.578;2022-10-22T16:47:51;12.55;;;4.60;;